sensor_id;sensor_type;location;lat;lon;timestamp;P1;durP1;ratioP1;P2;durP2;ratioP2
53931;SDS011;39844;52.496;13.482;2022-08-04T00:00:21;3.00;;;2.80;;
53931;SDS011;39844;52.496;13.482;2022-08-04T00:08:28;3.10;;;2.80;;
53931;SDS011;39844;52.496;13.482;2022-08-04T00:11:21;4.03;;;3.05;;
53931;SDS011;39844;52.496;13.482;2022-08-04T00:14:05;2.58;;;2.38;;
53931;SDS011;39844;52.496;13.482;2022-08-04T00:16:37;2.80;;;2.60;;
53931;SDS011;39844;52.496;13.482;2022-08-04T00:19:10;3.05;;;2.75;;
53931;SDS011;39844;52.496;13.482;2022-08-04T00:21:36;2.90;;;2.70;;
53931;SDS011;39844;52.496;13.482;2022-08-04T00:24:06;3.28;;;2.97;;
53931;SDS011;39844;52.496;13.482;2022-08-04T00:26:32;3.03;;;2.83;;
53931;SDS011;39844;52.496;13.482;2022-08-04T00:28:57;9.20;;;2.50;;
53931;SDS011;39844;52.496;13.482;2022-08-04T00:31:24;3.20;;;2.65;;
53931;SDS011;39844;52.496;13.482;2022-08-04T00:33:51;2.78;;;2.58;;
53931;SDS011;39844;52.496;13.482;2022-08-04T00:36:17;3.15;;;2.85;;
53931;SDS011;39844;52.496;13.482;2022-08-04T00:38:43;2.60;;;2.50;;
53931;SDS011;39844;52.496;13.482;2022-08-04T00:52:25;3.28;;;2.67;;
53931;SDS011;39844;52.496;13.482;2022-08-04T00:58:21;3.60;;;2.63;;
53931;SDS011;39844;52.496;13.482;2022-08-04T01:01:07;2.33;;;2.17;;
53931;SDS011;39844;52.496;13.482;2022-08-04T01:14:39;2.53;;;2.25;;
53931;SDS011;39844;52.496;13.482;2022-08-04T01:17:43;2.80;;;2.60;;
53931;SDS011;39844;52.496;13.482;2022-08-04T01:20:20;8.10;;;2.38;;
53931;SDS011;39844;52.496;13.482;2022-08-04T01:31:25;3.28;;;2.90;;
53931;SDS011;39844;52.496;13.482;2022-08-04T01:33:59;2.72;;;2.53;;
53931;SDS011;39844;52.496;13.482;2022-08-04T01:36:28;5.65;;;2.80;;
53931;SDS011;39844;52.496;13.482;2022-08-04T01:38:58;2.88;;;2.65;;
53931;SDS011;39844;52.496;13.482;2022-08-04T01:41:44;3.03;;;2.72;;
53931;SDS011;39844;52.496;13.482;2022-08-04T01:44:10;2.63;;;2.50;;
53931;SDS011;39844;52.496;13.482;2022-08-04T01:46:37;2.40;;;2.30;;
53931;SDS011;39844;52.496;13.482;2022-08-04T01:49:04;3.63;;;2.35;;
53931;SDS011;39844;52.496;13.482;2022-08-04T01:51:31;2.88;;;2.67;;
53931;SDS011;39844;52.496;13.482;2022-08-04T01:54:00;3.92;;;2.38;;
53931;SDS011;39844;52.496;13.482;2022-08-04T01:56:30;5.68;;;2.90;;
53931;SDS011;39844;52.496;13.482;2022-08-04T01:58:56;2.65;;;2.45;;
53931;SDS011;39844;52.496;13.482;2022-08-04T02:01:21;3.22;;;2.42;;
53931;SDS011;39844;52.496;13.482;2022-08-04T02:03:47;2.90;;;2.70;;
53931;SDS011;39844;52.496;13.482;2022-08-04T02:06:31;2.30;;;2.20;;
53931;SDS011;39844;52.496;13.482;2022-08-04T02:11:46;2.60;;;2.40;;
53931;SDS011;39844;52.496;13.482;2022-08-04T02:14:24;4.70;;;2.55;;
53931;SDS011;39844;52.496;13.482;2022-08-04T02:17:14;2.63;;;2.40;;
53931;SDS011;39844;52.496;13.482;2022-08-04T02:22:42;2.78;;;2.58;;
53931;SDS011;39844;52.496;13.482;2022-08-04T02:25:36;3.60;;;2.72;;
53931;SDS011;39844;52.496;13.482;2022-08-04T02:30:56;2.80;;;2.60;;
53931;SDS011;39844;52.496;13.482;2022-08-04T02:33:50;2.17;;;2.05;;
53931;SDS011;39844;52.496;13.482;2022-08-04T02:36:38;2.75;;;2.55;;
53931;SDS011;39844;52.496;13.482;2022-08-04T02:39:06;2.40;;;2.30;;
53931;SDS011;39844;52.496;13.482;2022-08-04T02:41:33;6.70;;;2.53;;
53931;SDS011;39844;52.496;13.482;2022-08-04T02:44:03;2.92;;;2.72;;
53931;SDS011;39844;52.496;13.482;2022-08-04T02:46:30;2.53;;;2.33;;
53931;SDS011;39844;52.496;13.482;2022-08-04T02:48:57;2.70;;;2.50;;
53931;SDS011;39844;52.496;13.482;2022-08-04T02:51:27;3.15;;;2.35;;
53931;SDS011;39844;52.496;13.482;2022-08-04T02:53:56;2.92;;;2.72;;
53931;SDS011;39844;52.496;13.482;2022-08-04T02:56:23;3.75;;;2.55;;
53931;SDS011;39844;52.496;13.482;2022-08-04T02:58:56;2.55;;;2.35;;
53931;SDS011;39844;52.496;13.482;2022-08-04T03:01:23;2.55;;;2.35;;
53931;SDS011;39844;52.496;13.482;2022-08-04T03:14:50;3.28;;;2.85;;
53931;SDS011;39844;52.496;13.482;2022-08-04T03:26:51;3.10;;;2.88;;
53931;SDS011;39844;52.496;13.482;2022-08-04T03:29:40;2.90;;;2.78;;
53931;SDS011;39844;52.496;13.482;2022-08-04T03:46:51;4.55;;;2.92;;
53931;SDS011;39844;52.496;13.482;2022-08-04T03:49:46;3.10;;;2.90;;
53931;SDS011;39844;52.496;13.482;2022-08-04T03:58:56;3.63;;;2.90;;
53931;SDS011;39844;52.496;13.482;2022-08-04T04:00:58;3.00;;;2.70;;
53931;SDS011;39844;52.496;13.482;2022-08-04T04:06:34;2.78;;;2.58;;
53931;SDS011;39844;52.496;13.482;2022-08-04T04:11:42;3.20;;;2.90;;
53931;SDS011;39844;52.496;13.482;2022-08-04T04:14:17;4.20;;;3.35;;
53931;SDS011;39844;52.496;13.482;2022-08-04T04:16:48;2.88;;;2.63;;
53931;SDS011;39844;52.496;13.482;2022-08-04T04:22:37;4.10;;;3.10;;
53931;SDS011;39844;52.496;13.482;2022-08-04T04:27:51;3.30;;;2.75;;
53931;SDS011;39844;52.496;13.482;2022-08-04T04:31:02;4.05;;;3.40;;
53931;SDS011;39844;52.496;13.482;2022-08-04T04:36:43;3.40;;;3.10;;
53931;SDS011;39844;52.496;13.482;2022-08-04T04:44:36;3.17;;;2.97;;
53931;SDS011;39844;52.496;13.482;2022-08-04T04:47:30;3.33;;;3.13;;
53931;SDS011;39844;52.496;13.482;2022-08-04T04:50:11;3.78;;;3.40;;
53931;SDS011;39844;52.496;13.482;2022-08-04T04:52:46;3.30;;;3.08;;
53931;SDS011;39844;52.496;13.482;2022-08-04T04:55:34;9.38;;;3.50;;
53931;SDS011;39844;52.496;13.482;2022-08-04T04:58:06;3.30;;;3.00;;
53931;SDS011;39844;52.496;13.482;2022-08-04T05:00:53;3.78;;;3.47;;
53931;SDS011;39844;52.496;13.482;2022-08-04T05:09:34;3.83;;;3.53;;
53931;SDS011;39844;52.496;13.482;2022-08-04T05:14:43;4.82;;;3.83;;
53931;SDS011;39844;52.496;13.482;2022-08-04T05:22:20;4.38;;;3.83;;
53931;SDS011;39844;52.496;13.482;2022-08-04T05:24:50;4.63;;;4.05;;
53931;SDS011;39844;52.496;13.482;2022-08-04T05:27:27;8.75;;;3.75;;
53931;SDS011;39844;52.496;13.482;2022-08-04T05:29:59;4.40;;;4.00;;
53931;SDS011;39844;52.496;13.482;2022-08-04T05:32:28;4.40;;;4.10;;
53931;SDS011;39844;52.496;13.482;2022-08-04T05:35:06;4.85;;;4.00;;
53931;SDS011;39844;52.496;13.482;2022-08-04T05:37:34;5.35;;;4.22;;
53931;SDS011;39844;52.496;13.482;2022-08-04T05:40:04;4.35;;;3.92;;
53931;SDS011;39844;52.496;13.482;2022-08-04T05:42:32;4.63;;;4.18;;
53931;SDS011;39844;52.496;13.482;2022-08-04T05:45:02;3.90;;;3.60;;
53931;SDS011;39844;52.496;13.482;2022-08-04T05:47:29;3.70;;;3.40;;
53931;SDS011;39844;52.496;13.482;2022-08-04T05:49:56;4.70;;;4.05;;
53931;SDS011;39844;52.496;13.482;2022-08-04T05:52:24;4.20;;;3.55;;
53931;SDS011;39844;52.496;13.482;2022-08-04T05:54:50;4.30;;;3.78;;
53931;SDS011;39844;52.496;13.482;2022-08-04T05:57:17;4.22;;;3.90;;
53931;SDS011;39844;52.496;13.482;2022-08-04T05:59:43;8.40;;;3.70;;
53931;SDS011;39844;52.496;13.482;2022-08-04T06:02:13;5.65;;;3.90;;
53931;SDS011;39844;52.496;13.482;2022-08-04T06:04:42;9.43;;;4.03;;
53931;SDS011;39844;52.496;13.482;2022-08-04T06:07:11;7.43;;;4.68;;
53931;SDS011;39844;52.496;13.482;2022-08-04T06:09:38;4.95;;;4.00;;
53931;SDS011;39844;52.496;13.482;2022-08-04T06:12:08;4.55;;;3.50;;
53931;SDS011;39844;52.496;13.482;2022-08-04T06:14:39;4.38;;;3.88;;
53931;SDS011;39844;52.496;13.482;2022-08-04T06:17:08;8.75;;;4.60;;
53931;SDS011;39844;52.496;13.482;2022-08-04T06:19:35;9.45;;;3.92;;
53931;SDS011;39844;52.496;13.482;2022-08-04T06:22:03;4.70;;;3.75;;
53931;SDS011;39844;52.496;13.482;2022-08-04T06:24:30;4.63;;;3.95;;
53931;SDS011;39844;52.496;13.482;2022-08-04T06:26:59;4.60;;;4.13;;
53931;SDS011;39844;52.496;13.482;2022-08-04T06:29:28;11.32;;;4.20;;
53931;SDS011;39844;52.496;13.482;2022-08-04T06:32:06;17.02;;;4.65;;
53931;SDS011;39844;52.496;13.482;2022-08-04T06:34:49;8.05;;;3.67;;
53931;SDS011;39844;52.496;13.482;2022-08-04T06:37:17;5.18;;;3.75;;
53931;SDS011;39844;52.496;13.482;2022-08-04T06:39:44;4.40;;;3.85;;
53931;SDS011;39844;52.496;13.482;2022-08-04T06:42:10;4.30;;;4.00;;
53931;SDS011;39844;52.496;13.482;2022-08-04T06:44:36;4.50;;;3.70;;
53931;SDS011;39844;52.496;13.482;2022-08-04T06:47:04;8.48;;;4.18;;
53931;SDS011;39844;52.496;13.482;2022-08-04T06:49:31;9.85;;;3.70;;
53931;SDS011;39844;52.496;13.482;2022-08-04T06:51:58;3.70;;;3.45;;
53931;SDS011;39844;52.496;13.482;2022-08-04T06:54:26;5.22;;;4.53;;
53931;SDS011;39844;52.496;13.482;2022-08-04T06:56:52;3.60;;;3.28;;
53931;SDS011;39844;52.496;13.482;2022-08-04T06:59:21;3.72;;;3.42;;
53931;SDS011;39844;52.496;13.482;2022-08-04T07:01:48;4.15;;;3.85;;
53931;SDS011;39844;52.496;13.482;2022-08-04T07:04:15;3.45;;;3.22;;
53931;SDS011;39844;52.496;13.482;2022-08-04T07:06:40;3.92;;;3.35;;
53931;SDS011;39844;52.496;13.482;2022-08-04T07:09:06;5.60;;;4.03;;
53931;SDS011;39844;52.496;13.482;2022-08-04T07:11:32;3.70;;;3.22;;
53931;SDS011;39844;52.496;13.482;2022-08-04T07:13:58;4.38;;;3.80;;
53931;SDS011;39844;52.496;13.482;2022-08-04T07:16:24;10.70;;;3.45;;
53931;SDS011;39844;52.496;13.482;2022-08-04T07:18:49;3.63;;;3.42;;
53931;SDS011;39844;52.496;13.482;2022-08-04T07:21:21;4.72;;;3.05;;
53931;SDS011;39844;52.496;13.482;2022-08-04T07:23:47;4.00;;;2.83;;
53931;SDS011;39844;52.496;13.482;2022-08-04T07:26:13;6.90;;;3.70;;
53931;SDS011;39844;52.496;13.482;2022-08-04T07:28:43;4.72;;;3.28;;
53931;SDS011;39844;52.496;13.482;2022-08-04T07:31:09;4.00;;;3.60;;
53931;SDS011;39844;52.496;13.482;2022-08-04T07:33:39;3.50;;;3.20;;
53931;SDS011;39844;52.496;13.482;2022-08-04T07:36:06;3.47;;;3.13;;
53931;SDS011;39844;52.496;13.482;2022-08-04T07:38:32;3.42;;;3.03;;
53931;SDS011;39844;52.496;13.482;2022-08-04T07:40:57;2.92;;;2.75;;
53931;SDS011;39844;52.496;13.482;2022-08-04T07:43:24;3.42;;;3.13;;
53931;SDS011;39844;52.496;13.482;2022-08-04T07:45:51;3.38;;;3.13;;
53931;SDS011;39844;52.496;13.482;2022-08-04T07:48:16;2.80;;;2.60;;
53931;SDS011;39844;52.496;13.482;2022-08-04T07:50:42;2.92;;;2.72;;
53931;SDS011;39844;52.496;13.482;2022-08-04T07:53:09;3.15;;;2.95;;
53931;SDS011;39844;52.496;13.482;2022-08-04T07:55:37;4.28;;;2.90;;
53931;SDS011;39844;52.496;13.482;2022-08-04T07:58:02;3.78;;;2.80;;
53931;SDS011;39844;52.496;13.482;2022-08-04T08:00:27;3.35;;;3.10;;
53931;SDS011;39844;52.496;13.482;2022-08-04T08:02:54;3.00;;;2.80;;
53931;SDS011;39844;52.496;13.482;2022-08-04T08:05:20;3.80;;;2.83;;
53931;SDS011;39844;52.496;13.482;2022-08-04T08:07:46;4.05;;;3.22;;
53931;SDS011;39844;52.496;13.482;2022-08-04T08:10:13;5.10;;;2.63;;
53931;SDS011;39844;52.496;13.482;2022-08-04T08:12:39;2.65;;;2.47;;
53931;SDS011;39844;52.496;13.482;2022-08-04T08:15:06;4.45;;;2.85;;
53931;SDS011;39844;52.496;13.482;2022-08-04T08:17:33;4.80;;;3.08;;
53931;SDS011;39844;52.496;13.482;2022-08-04T08:19:59;3.42;;;2.85;;
53931;SDS011;39844;52.496;13.482;2022-08-04T08:22:25;3.88;;;2.83;;
53931;SDS011;39844;52.496;13.482;2022-08-04T08:24:50;3.33;;;3.13;;
53931;SDS011;39844;52.496;13.482;2022-08-04T08:27:16;3.45;;;2.85;;
53931;SDS011;39844;52.496;13.482;2022-08-04T08:29:41;3.13;;;2.58;;
53931;SDS011;39844;52.496;13.482;2022-08-04T08:32:09;3.25;;;2.95;;
53931;SDS011;39844;52.496;13.482;2022-08-04T08:34:38;3.05;;;2.80;;
53931;SDS011;39844;52.496;13.482;2022-08-04T08:37:12;4.95;;;2.72;;
53931;SDS011;39844;52.496;13.482;2022-08-04T08:48:27;8.45;;;2.92;;
53931;SDS011;39844;52.496;13.482;2022-08-04T08:53:55;5.68;;;3.05;;
53931;SDS011;39844;52.496;13.482;2022-08-04T08:59:15;5.28;;;2.97;;
53931;SDS011;39844;52.496;13.482;2022-08-04T09:07:36;2.30;;;2.20;;
53931;SDS011;39844;52.496;13.482;2022-08-04T09:10:18;3.08;;;2.70;;
53931;SDS011;39844;52.496;13.482;2022-08-04T09:12:53;3.10;;;2.83;;
53931;SDS011;39844;52.496;13.482;2022-08-04T09:15:29;2.55;;;2.35;;
53931;SDS011;39844;52.496;13.482;2022-08-04T09:20:34;2.92;;;2.72;;
53931;SDS011;39844;52.496;13.482;2022-08-04T09:23:17;2.70;;;2.47;;
53931;SDS011;39844;52.496;13.482;2022-08-04T09:26:36;4.93;;;2.58;;
53931;SDS011;39844;52.496;13.482;2022-08-04T09:31:43;2.40;;;2.30;;
53931;SDS011;39844;52.496;13.482;2022-08-04T09:37:10;5.28;;;2.45;;
53931;SDS011;39844;52.496;13.482;2022-08-04T09:40:01;2.58;;;2.38;;
53931;SDS011;39844;52.496;13.482;2022-08-04T09:45:11;2.10;;;2.00;;
53931;SDS011;39844;52.496;13.482;2022-08-04T09:50:28;2.92;;;2.70;;
53931;SDS011;39844;52.496;13.482;2022-08-04T09:53:05;5.88;;;2.47;;
53931;SDS011;39844;52.496;13.482;2022-08-04T10:00:55;2.38;;;2.17;;
53931;SDS011;39844;52.496;13.482;2022-08-04T10:03:40;2.40;;;2.30;;
53931;SDS011;39844;52.496;13.482;2022-08-04T10:09:10;3.22;;;2.35;;
53931;SDS011;39844;52.496;13.482;2022-08-04T10:20:08;2.47;;;2.38;;
53931;SDS011;39844;52.496;13.482;2022-08-04T10:22:50;2.20;;;2.10;;
53931;SDS011;39844;52.496;13.482;2022-08-04T10:28:29;4.30;;;2.10;;
53931;SDS011;39844;52.496;13.482;2022-08-04T10:31:02;4.57;;;2.20;;
53931;SDS011;39844;52.496;13.482;2022-08-04T10:33:44;2.38;;;2.17;;
53931;SDS011;39844;52.496;13.482;2022-08-04T10:36:16;2.28;;;2.08;;
53931;SDS011;39844;52.496;13.482;2022-08-04T10:39:09;2.08;;;1.98;;
53931;SDS011;39844;52.496;13.482;2022-08-04T10:41:38;2.70;;;2.30;;
53931;SDS011;39844;52.496;13.482;2022-08-04T10:44:27;2.38;;;2.00;;
53931;SDS011;39844;52.496;13.482;2022-08-04T10:46:57;2.10;;;2.00;;
53931;SDS011;39844;52.496;13.482;2022-08-04T10:54:57;2.40;;;2.30;;
53931;SDS011;39844;52.496;13.482;2022-08-04T11:00:13;2.15;;;2.05;;
53931;SDS011;39844;52.496;13.482;2022-08-04T11:08:24;3.13;;;1.90;;
53931;SDS011;39844;52.496;13.482;2022-08-04T11:11:00;2.10;;;2.00;;
53931;SDS011;39844;52.496;13.482;2022-08-04T11:13:37;2.00;;;1.90;;
53931;SDS011;39844;52.496;13.482;2022-08-04T11:19:16;2.42;;;1.90;;
53931;SDS011;39844;52.496;13.482;2022-08-04T11:21:55;2.22;;;2.13;;
53931;SDS011;39844;52.496;13.482;2022-08-04T11:27:39;1.73;;;1.73;;
53931;SDS011;39844;52.496;13.482;2022-08-04T11:30:11;4.35;;;1.83;;
53931;SDS011;39844;52.496;13.482;2022-08-04T11:35:24;2.10;;;2.00;;
53931;SDS011;39844;52.496;13.482;2022-08-04T11:38:00;2.05;;;1.95;;
53931;SDS011;39844;52.496;13.482;2022-08-04T11:40:40;2.00;;;1.90;;
53931;SDS011;39844;52.496;13.482;2022-08-04T11:43:15;2.03;;;1.92;;
53931;SDS011;39844;52.496;13.482;2022-08-04T11:45:53;2.35;;;2.17;;
53931;SDS011;39844;52.496;13.482;2022-08-04T11:48:38;1.90;;;1.83;;
53931;SDS011;39844;52.496;13.482;2022-08-04T11:51:09;2.05;;;1.90;;
53931;SDS011;39844;52.496;13.482;2022-08-04T11:53:36;2.10;;;2.00;;
53931;SDS011;39844;52.496;13.482;2022-08-04T11:56:04;1.95;;;1.85;;
53931;SDS011;39844;52.496;13.482;2022-08-04T11:58:32;2.10;;;2.00;;
53931;SDS011;39844;52.496;13.482;2022-08-04T12:17:08;1.80;;;1.70;;
53931;SDS011;39844;52.496;13.482;2022-08-04T12:22:07;4.10;;;1.92;;
53931;SDS011;39844;52.496;13.482;2022-08-04T12:24:52;2.03;;;1.90;;
53931;SDS011;39844;52.496;13.482;2022-08-04T12:27:41;2.00;;;1.90;;
53931;SDS011;39844;52.496;13.482;2022-08-04T12:30:13;2.05;;;1.90;;
53931;SDS011;39844;52.496;13.482;2022-08-04T12:32:42;2.00;;;1.90;;
53931;SDS011;39844;52.496;13.482;2022-08-04T12:38:13;3.45;;;2.13;;
53931;SDS011;39844;52.496;13.482;2022-08-04T12:40:46;3.88;;;2.03;;
53931;SDS011;39844;52.496;13.482;2022-08-04T12:45:42;2.00;;;1.90;;
53931;SDS011;39844;52.496;13.482;2022-08-04T12:48:09;2.20;;;2.10;;
53931;SDS011;39844;52.496;13.482;2022-08-04T12:50:36;1.90;;;1.83;;
53931;SDS011;39844;52.496;13.482;2022-08-04T12:53:09;1.75;;;1.65;;
53931;SDS011;39844;52.496;13.482;2022-08-04T12:55:37;2.83;;;1.90;;
53931;SDS011;39844;52.496;13.482;2022-08-04T12:58:14;2.97;;;1.92;;
53931;SDS011;39844;52.496;13.482;2022-08-04T13:00:41;1.90;;;1.80;;
53931;SDS011;39844;52.496;13.482;2022-08-04T13:03:14;2.20;;;2.00;;
53931;SDS011;39844;52.496;13.482;2022-08-04T13:05:41;2.78;;;1.67;;
53931;SDS011;39844;52.496;13.482;2022-08-04T13:08:07;2.65;;;1.80;;
53931;SDS011;39844;52.496;13.482;2022-08-04T13:10:43;5.03;;;1.70;;
53931;SDS011;39844;52.496;13.482;2022-08-04T13:13:20;1.73;;;1.70;;
53931;SDS011;39844;52.496;13.482;2022-08-04T13:15:53;2.97;;;1.95;;
53931;SDS011;39844;52.496;13.482;2022-08-04T13:18:24;2.65;;;1.80;;
53931;SDS011;39844;52.496;13.482;2022-08-04T13:20:51;1.60;;;1.50;;
53931;SDS011;39844;52.496;13.482;2022-08-04T13:23:17;2.25;;;1.88;;
53931;SDS011;39844;52.496;13.482;2022-08-04T13:25:44;1.55;;;1.55;;
53931;SDS011;39844;52.496;13.482;2022-08-04T13:28:15;1.88;;;1.77;;
53931;SDS011;39844;52.496;13.482;2022-08-04T13:30:44;1.70;;;1.60;;
53931;SDS011;39844;52.496;13.482;2022-08-04T13:33:11;2.75;;;1.70;;
53931;SDS011;39844;52.496;13.482;2022-08-04T13:35:43;3.05;;;1.70;;
53931;SDS011;39844;52.496;13.482;2022-08-04T13:38:13;1.40;;;1.40;;
53931;SDS011;39844;52.496;13.482;2022-08-04T13:40:41;1.40;;;1.40;;
53931;SDS011;39844;52.496;13.482;2022-08-04T13:43:09;2.17;;;1.92;;
53931;SDS011;39844;52.496;13.482;2022-08-04T13:45:46;2.00;;;1.90;;
53931;SDS011;39844;52.496;13.482;2022-08-04T13:48:14;1.83;;;1.73;;
53931;SDS011;39844;52.496;13.482;2022-08-04T13:50:43;1.80;;;1.73;;
53931;SDS011;39844;52.496;13.482;2022-08-04T13:53:09;2.00;;;1.75;;
53931;SDS011;39844;52.496;13.482;2022-08-04T13:55:36;1.65;;;1.58;;
53931;SDS011;39844;52.496;13.482;2022-08-04T13:58:07;1.80;;;1.73;;
53931;SDS011;39844;52.496;13.482;2022-08-04T14:00:45;1.75;;;1.73;;
53931;SDS011;39844;52.496;13.482;2022-08-04T14:03:36;2.53;;;1.73;;
53931;SDS011;39844;52.496;13.482;2022-08-04T14:09:17;1.90;;;1.80;;
53931;SDS011;39844;52.496;13.482;2022-08-04T14:19:53;1.48;;;1.48;;
53931;SDS011;39844;52.496;13.482;2022-08-04T14:24:54;1.58;;;1.55;;
53931;SDS011;39844;52.496;13.482;2022-08-04T14:27:20;1.52;;;1.42;;
53931;SDS011;39844;52.496;13.482;2022-08-04T14:29:45;1.50;;;1.40;;
53931;SDS011;39844;52.496;13.482;2022-08-04T14:32:11;1.30;;;1.30;;
53931;SDS011;39844;52.496;13.482;2022-08-04T14:34:37;1.50;;;1.50;;
53931;SDS011;39844;52.496;13.482;2022-08-04T14:37:10;1.63;;;1.52;;
53931;SDS011;39844;52.496;13.482;2022-08-04T14:39:43;1.60;;;1.60;;
53931;SDS011;39844;52.496;13.482;2022-08-04T14:42:12;1.30;;;1.30;;
53931;SDS011;39844;52.496;13.482;2022-08-04T14:44:52;1.58;;;1.48;;
53931;SDS011;39844;52.496;13.482;2022-08-04T14:47:41;1.88;;;1.30;;
53931;SDS011;39844;52.496;13.482;2022-08-04T14:50:10;1.63;;;1.60;;
53931;SDS011;39844;52.496;13.482;2022-08-04T14:52:37;2.47;;;1.58;;
53931;SDS011;39844;52.496;13.482;2022-08-04T14:55:16;1.70;;;1.60;;
53931;SDS011;39844;52.496;13.482;2022-08-04T14:57:42;3.50;;;1.60;;
53931;SDS011;39844;52.496;13.482;2022-08-04T15:00:07;1.80;;;1.70;;
53931;SDS011;39844;52.496;13.482;2022-08-04T15:02:33;1.45;;;1.42;;
53931;SDS011;39844;52.496;13.482;2022-08-04T15:05:00;1.38;;;1.38;;
53931;SDS011;39844;52.496;13.482;2022-08-04T15:07:28;1.67;;;1.58;;
53931;SDS011;39844;52.496;13.482;2022-08-04T15:09:54;3.15;;;1.77;;
53931;SDS011;39844;52.496;13.482;2022-08-04T15:12:20;1.40;;;1.40;;
53931;SDS011;39844;52.496;13.482;2022-08-04T15:14:46;1.40;;;1.40;;
53931;SDS011;39844;52.496;13.482;2022-08-04T15:17:11;1.30;;;1.30;;
53931;SDS011;39844;52.496;13.482;2022-08-04T15:19:37;1.55;;;1.45;;
53931;SDS011;39844;52.496;13.482;2022-08-04T15:22:02;1.40;;;1.40;;
53931;SDS011;39844;52.496;13.482;2022-08-04T15:24:28;1.60;;;1.50;;
53931;SDS011;39844;52.496;13.482;2022-08-04T15:26:55;1.58;;;1.48;;
53931;SDS011;39844;52.496;13.482;2022-08-04T15:29:31;1.60;;;1.55;;
53931;SDS011;39844;52.496;13.482;2022-08-04T15:32:03;4.22;;;1.90;;
53931;SDS011;39844;52.496;13.482;2022-08-04T15:34:46;2.72;;;1.65;;
53931;SDS011;39844;52.496;13.482;2022-08-04T15:37:15;1.42;;;1.42;;
53931;SDS011;39844;52.496;13.482;2022-08-04T15:39:47;4.00;;;2.00;;
53931;SDS011;39844;52.496;13.482;2022-08-04T15:42:33;1.63;;;1.52;;
53931;SDS011;39844;52.496;13.482;2022-08-04T15:47:40;2.25;;;1.50;;
53931;SDS011;39844;52.496;13.482;2022-08-04T15:50:07;10.50;;;1.95;;
53931;SDS011;39844;52.496;13.482;2022-08-04T15:52:58;1.63;;;1.58;;
53931;SDS011;39844;52.496;13.482;2022-08-04T15:58:04;4.93;;;1.75;;
53931;SDS011;39844;52.496;13.482;2022-08-04T16:09:19;1.50;;;1.50;;
53931;SDS011;39844;52.496;13.482;2022-08-04T16:19:07;1.70;;;1.70;;
53931;SDS011;39844;52.496;13.482;2022-08-04T16:21:48;1.70;;;1.60;;
53931;SDS011;39844;52.496;13.482;2022-08-04T16:24:17;3.08;;;1.60;;
53931;SDS011;39844;52.496;13.482;2022-08-04T16:26:45;4.43;;;1.60;;
53931;SDS011;39844;52.496;13.482;2022-08-04T16:29:40;4.93;;;1.70;;
53931;SDS011;39844;52.496;13.482;2022-08-04T16:32:17;6.38;;;2.00;;
53931;SDS011;39844;52.496;13.482;2022-08-04T16:34:48;1.40;;;1.40;;
53931;SDS011;39844;52.496;13.482;2022-08-04T16:37:19;3.47;;;1.85;;
53931;SDS011;39844;52.496;13.482;2022-08-04T16:39:47;5.32;;;1.50;;
53931;SDS011;39844;52.496;13.482;2022-08-04T16:42:31;1.65;;;1.55;;
53931;SDS011;39844;52.496;13.482;2022-08-04T16:50:10;1.60;;;1.60;;
53931;SDS011;39844;52.496;13.482;2022-08-04T16:52:41;5.50;;;1.90;;
53931;SDS011;39844;52.496;13.482;2022-08-04T16:55:11;1.30;;;1.30;;
53931;SDS011;39844;52.496;13.482;2022-08-04T16:57:44;1.58;;;1.58;;
53931;SDS011;39844;52.496;13.482;2022-08-04T17:00:10;2.42;;;1.50;;
53931;SDS011;39844;52.496;13.482;2022-08-04T17:02:36;1.52;;;1.45;;
53931;SDS011;39844;52.496;13.482;2022-08-04T17:05:01;1.73;;;1.40;;
53931;SDS011;39844;52.496;13.482;2022-08-04T17:07:26;1.58;;;1.48;;
53931;SDS011;39844;52.496;13.482;2022-08-04T17:09:52;1.90;;;1.80;;
53931;SDS011;39844;52.496;13.482;2022-08-04T17:12:17;1.38;;;1.35;;
53931;SDS011;39844;52.496;13.482;2022-08-04T17:14:42;1.40;;;1.40;;
53931;SDS011;39844;52.496;13.482;2022-08-04T17:17:08;1.55;;;1.45;;
53931;SDS011;39844;52.496;13.482;2022-08-04T17:19:34;1.35;;;1.35;;
53931;SDS011;39844;52.496;13.482;2022-08-04T17:22:00;1.80;;;1.70;;
53931;SDS011;39844;52.496;13.482;2022-08-04T17:24:32;1.55;;;1.55;;
53931;SDS011;39844;52.496;13.482;2022-08-04T17:27:00;6.75;;;1.60;;
53931;SDS011;39844;52.496;13.482;2022-08-04T17:29:27;2.17;;;1.38;;
53931;SDS011;39844;52.496;13.482;2022-08-04T17:31:56;1.60;;;1.50;;
53931;SDS011;39844;52.496;13.482;2022-08-04T17:34:21;3.78;;;1.50;;
53931;SDS011;39844;52.496;13.482;2022-08-04T17:36:49;1.60;;;1.50;;
53931;SDS011;39844;52.496;13.482;2022-08-04T17:39:16;5.15;;;1.55;;
53931;SDS011;39844;52.496;13.482;2022-08-04T17:41:44;4.50;;;1.45;;
53931;SDS011;39844;52.496;13.482;2022-08-04T17:44:10;1.35;;;1.35;;
53931;SDS011;39844;52.496;13.482;2022-08-04T17:46:40;1.23;;;1.23;;
53931;SDS011;39844;52.496;13.482;2022-08-04T17:54:31;2.08;;;1.23;;
53931;SDS011;39844;52.496;13.482;2022-08-04T17:56:58;5.90;;;1.70;;
53931;SDS011;39844;52.496;13.482;2022-08-04T17:59:26;1.60;;;1.50;;
53931;SDS011;39844;52.496;13.482;2022-08-04T18:04:32;1.30;;;1.30;;
53931;SDS011;39844;52.496;13.482;2022-08-04T18:06:59;2.47;;;1.42;;
53931;SDS011;39844;52.496;13.482;2022-08-04T18:09:28;1.48;;;1.38;;
53931;SDS011;39844;52.496;13.482;2022-08-04T18:12:21;1.38;;;1.38;;
53931;SDS011;39844;52.496;13.482;2022-08-04T18:14:55;1.83;;;1.55;;
53931;SDS011;39844;52.496;13.482;2022-08-04T18:17:32;2.63;;;1.40;;
53931;SDS011;39844;52.496;13.482;2022-08-04T18:20:07;1.40;;;1.40;;
53931;SDS011;39844;52.496;13.482;2022-08-04T18:22:37;1.30;;;1.30;;
53931;SDS011;39844;52.496;13.482;2022-08-04T18:25:05;2.38;;;1.20;;
53931;SDS011;39844;52.496;13.482;2022-08-04T18:27:44;1.55;;;1.45;;
53931;SDS011;39844;52.496;13.482;2022-08-04T18:30:20;2.72;;;1.45;;
53931;SDS011;39844;52.496;13.482;2022-08-04T18:32:47;2.65;;;1.50;;
53931;SDS011;39844;52.496;13.482;2022-08-04T18:35:13;1.60;;;1.50;;
53931;SDS011;39844;52.496;13.482;2022-08-04T18:37:39;1.45;;;1.35;;
53931;SDS011;39844;52.496;13.482;2022-08-04T18:40:06;1.45;;;1.35;;
53931;SDS011;39844;52.496;13.482;2022-08-04T18:42:33;3.00;;;1.45;;
53931;SDS011;39844;52.496;13.482;2022-08-04T18:44:59;4.03;;;1.50;;
53931;SDS011;39844;52.496;13.482;2022-08-04T18:47:24;5.90;;;1.73;;
53931;SDS011;39844;52.496;13.482;2022-08-04T18:49:50;2.85;;;2.20;;
53931;SDS011;39844;52.496;13.482;2022-08-04T18:52:16;7.45;;;1.90;;
53931;SDS011;39844;52.496;13.482;2022-08-04T18:54:41;9.60;;;2.53;;
53931;SDS011;39844;52.496;13.482;2022-08-04T18:57:07;8.18;;;2.35;;
53931;SDS011;39844;52.496;13.482;2022-08-04T18:59:32;2.75;;;1.92;;
53931;SDS011;39844;52.496;13.482;2022-08-04T19:01:58;4.57;;;1.77;;
53931;SDS011;39844;52.496;13.482;2022-08-04T19:04:24;2.97;;;1.88;;
53931;SDS011;39844;52.496;13.482;2022-08-04T19:06:49;1.83;;;1.60;;
53931;SDS011;39844;52.496;13.482;2022-08-04T19:09:14;4.85;;;1.67;;
53931;SDS011;39844;52.496;13.482;2022-08-04T19:11:40;2.20;;;1.80;;
53931;SDS011;39844;52.496;13.482;2022-08-04T19:14:05;3.15;;;1.77;;
53931;SDS011;39844;52.496;13.482;2022-08-04T19:16:32;3.72;;;1.70;;
53931;SDS011;39844;52.496;13.482;2022-08-04T19:18:59;3.88;;;1.58;;
53931;SDS011;39844;52.496;13.482;2022-08-04T19:21:26;3.88;;;1.70;;
53931;SDS011;39844;52.496;13.482;2022-08-04T19:23:53;3.85;;;1.70;;
53931;SDS011;39844;52.496;13.482;2022-08-04T19:26:18;1.60;;;1.60;;
53931;SDS011;39844;52.496;13.482;2022-08-04T19:28:44;4.68;;;1.85;;